sensor_id;sensor_type;location;lat;lon;timestamp;temperature;humidity
44565;DHT22;30275;51.822;-0.326;2022-11-04T00:01:13;5.60;99.90
44565;DHT22;30275;51.822;-0.326;2022-11-04T00:03:39;5.70;99.90
44565;DHT22;30275;51.822;-0.326;2022-11-04T00:06:04;6.00;99.90
44565;DHT22;30275;51.822;-0.326;2022-11-04T00:08:30;6.10;99.90
44565;DHT22;30275;51.822;-0.326;2022-11-04T00:10:57;6.20;99.90
44565;DHT22;30275;51.822;-0.326;2022-11-04T00:13:41;6.30;99.90
44565;DHT22;30275;51.822;-0.326;2022-11-04T00:16:07;6.40;99.90
44565;DHT22;30275;51.822;-0.326;2022-11-04T00:18:52;6.50;99.90
44565;DHT22;30275;51.822;-0.326;2022-11-04T00:21:18;6.60;99.90
44565;DHT22;30275;51.822;-0.326;2022-11-04T00:24:03;6.70;99.90
44565;DHT22;30275;51.822;-0.326;2022-11-04T00:26:47;6.80;99.90
44565;DHT22;30275;51.822;-0.326;2022-11-04T00:29:31;6.80;99.90
44565;DHT22;30275;51.822;-0.326;2022-11-04T00:31:57;6.80;99.90
44565;DHT22;30275;51.822;-0.326;2022-11-04T00:34:41;6.80;99.90
44565;DHT22;30275;51.822;-0.326;2022-11-04T00:37:06;6.70;99.90
44565;DHT22;30275;51.822;-0.326;2022-11-04T00:39:32;6.70;99.90
44565;DHT22;30275;51.822;-0.326;2022-11-04T00:41:58;6.70;99.90
44565;DHT22;30275;51.822;-0.326;2022-11-04T00:44:23;6.80;99.90
44565;DHT22;30275;51.822;-0.326;2022-11-04T00:46:49;6.70;99.90
44565;DHT22;30275;51.822;-0.326;2022-11-04T00:49:15;6.80;99.90
44565;DHT22;30275;51.822;-0.326;2022-11-04T00:51:40;6.70;99.90
44565;DHT22;30275;51.822;-0.326;2022-11-04T00:54:06;6.70;99.90
44565;DHT22;30275;51.822;-0.326;2022-11-04T00:56:32;6.70;99.90
44565;DHT22;30275;51.822;-0.326;2022-11-04T00:59:00;6.60;99.90
44565;DHT22;30275;51.822;-0.326;2022-11-04T01:01:26;6.60;99.90
44565;DHT22;30275;51.822;-0.326;2022-11-04T01:03:52;6.60;99.90
44565;DHT22;30275;51.822;-0.326;2022-11-04T01:06:20;6.60;99.90
44565;DHT22;30275;51.822;-0.326;2022-11-04T01:08:47;6.70;99.90
44565;DHT22;30275;51.822;-0.326;2022-11-04T01:11:13;6.60;99.90
44565;DHT22;30275;51.822;-0.326;2022-11-04T01:13:40;6.70;99.90
44565;DHT22;30275;51.822;-0.326;2022-11-04T01:16:08;6.60;99.90
44565;DHT22;30275;51.822;-0.326;2022-11-04T01:18:34;6.70;99.90
44565;DHT22;30275;51.822;-0.326;2022-11-04T01:21:04;6.70;99.90
44565;DHT22;30275;51.822;-0.326;2022-11-04T01:23:31;6.70;99.90
44565;DHT22;30275;51.822;-0.326;2022-11-04T01:25:58;6.70;99.90
44565;DHT22;30275;51.822;-0.326;2022-11-04T01:28:24;6.70;99.90
44565;DHT22;30275;51.822;-0.326;2022-11-04T01:30:50;6.70;99.90
44565;DHT22;30275;51.822;-0.326;2022-11-04T01:33:15;6.70;99.90
44565;DHT22;30275;51.822;-0.326;2022-11-04T01:35:41;6.70;99.90
44565;DHT22;30275;51.822;-0.326;2022-11-04T01:38:06;6.60;99.90
44565;DHT22;30275;51.822;-0.326;2022-11-04T01:40:36;6.60;99.90
44565;DHT22;30275;51.822;-0.326;2022-11-04T01:43:03;6.60;99.90
44565;DHT22;30275;51.822;-0.326;2022-11-04T01:45:28;6.60;99.90
44565;DHT22;30275;51.822;-0.326;2022-11-04T01:48:02;6.60;99.90
44565;DHT22;30275;51.822;-0.326;2022-11-04T01:50:29;6.60;99.90
44565;DHT22;30275;51.822;-0.326;2022-11-04T01:53:16;6.50;99.90
44565;DHT22;30275;51.822;-0.326;2022-11-04T01:55:50;6.50;99.90
44565;DHT22;30275;51.822;-0.326;2022-11-04T01:58:18;6.50;99.90
44565;DHT22;30275;51.822;-0.326;2022-11-04T02:00:45;6.60;99.90
44565;DHT22;30275;51.822;-0.326;2022-11-04T02:03:20;6.60;99.90
44565;DHT22;30275;51.822;-0.326;2022-11-04T02:05:49;6.50;99.90
44565;DHT22;30275;51.822;-0.326;2022-11-04T02:08:16;6.50;99.90
44565;DHT22;30275;51.822;-0.326;2022-11-04T02:10:48;6.50;99.90
44565;DHT22;30275;51.822;-0.326;2022-11-04T02:13:15;6.50;99.90
44565;DHT22;30275;51.822;-0.326;2022-11-04T02:16:00;6.50;99.90
44565;DHT22;30275;51.822;-0.326;2022-11-04T02:35:28;6.40;99.90
44565;DHT22;30275;51.822;-0.326;2022-11-04T02:46:31;6.40;99.90
44565;DHT22;30275;51.822;-0.326;2022-11-04T02:49:07;6.40;99.90
44565;DHT22;30275;51.822;-0.326;2022-11-04T02:51:43;6.40;99.90
44565;DHT22;30275;51.822;-0.326;2022-11-04T02:54:30;6.40;99.90
44565;DHT22;30275;51.822;-0.326;2022-11-04T02:57:00;6.50;99.90
44565;DHT22;30275;51.822;-0.326;2022-11-04T02:59:35;6.40;99.90
44565;DHT22;30275;51.822;-0.326;2022-11-04T03:02:05;6.40;99.90
44565;DHT22;30275;51.822;-0.326;2022-11-04T03:04:37;6.40;99.90
44565;DHT22;30275;51.822;-0.326;2022-11-04T03:07:08;6.40;99.90
44565;DHT22;30275;51.822;-0.326;2022-11-04T03:09:38;6.40;99.90
44565;DHT22;30275;51.822;-0.326;2022-11-04T03:12:08;6.40;99.90
44565;DHT22;30275;51.822;-0.326;2022-11-04T03:14:50;6.40;99.90
44565;DHT22;30275;51.822;-0.326;2022-11-04T03:17:48;6.30;99.90
44565;DHT22;30275;51.822;-0.326;2022-11-04T03:20:21;6.30;99.90
44565;DHT22;30275;51.822;-0.326;2022-11-04T03:22:47;6.30;99.90
44565;DHT22;30275;51.822;-0.326;2022-11-04T03:25:14;6.30;99.90
44565;DHT22;30275;51.822;-0.326;2022-11-04T03:28:08;6.30;99.90
44565;DHT22;30275;51.822;-0.326;2022-11-04T03:30:42;6.40;99.90
44565;DHT22;30275;51.822;-0.326;2022-11-04T03:33:39;6.40;99.90
44565;DHT22;30275;51.822;-0.326;2022-11-04T03:36:07;6.40;99.90
44565;DHT22;30275;51.822;-0.326;2022-11-04T03:38:34;6.40;99.90
44565;DHT22;30275;51.822;-0.326;2022-11-04T03:41:01;6.50;99.90
44565;DHT22;30275;51.822;-0.326;2022-11-04T03:43:28;6.50;99.90
44565;DHT22;30275;51.822;-0.326;2022-11-04T03:45:54;6.50;99.90
44565;DHT22;30275;51.822;-0.326;2022-11-04T03:48:21;6.50;99.90
44565;DHT22;30275;51.822;-0.326;2022-11-04T03:50:48;6.70;99.90
44565;DHT22;30275;51.822;-0.326;2022-11-04T03:53:21;6.60;99.90
44565;DHT22;30275;51.822;-0.326;2022-11-04T03:58:38;6.60;99.90
44565;DHT22;30275;51.822;-0.326;2022-11-04T04:03:41;6.50;99.90
44565;DHT22;30275;51.822;-0.326;2022-11-04T04:06:17;6.60;99.90
44565;DHT22;30275;51.822;-0.326;2022-11-04T04:08:48;6.50;99.90
44565;DHT22;30275;51.822;-0.326;2022-11-04T04:11:29;6.50;99.90
44565;DHT22;30275;51.822;-0.326;2022-11-04T04:16:32;6.30;99.90
44565;DHT22;30275;51.822;-0.326;2022-11-04T04:19:10;6.20;99.90
44565;DHT22;30275;51.822;-0.326;2022-11-04T04:21:46;6.20;99.90
44565;DHT22;30275;51.822;-0.326;2022-11-04T04:24:16;6.10;99.90
44565;DHT22;30275;51.822;-0.326;2022-11-04T04:27:02;6.10;99.90
44565;DHT22;30275;51.822;-0.326;2022-11-04T04:29:46;6.10;99.90
44565;DHT22;30275;51.822;-0.326;2022-11-04T04:32:13;6.00;99.90
44565;DHT22;30275;51.822;-0.326;2022-11-04T04:34:40;6.00;99.90
44565;DHT22;30275;51.822;-0.326;2022-11-04T04:37:14;6.00;99.90
44565;DHT22;30275;51.822;-0.326;2022-11-04T04:39:55;6.00;99.90
44565;DHT22;30275;51.822;-0.326;2022-11-04T04:42:40;6.00;99.90
44565;DHT22;30275;51.822;-0.326;2022-11-04T04:45:36;6.00;99.90
44565;DHT22;30275;51.822;-0.326;2022-11-04T04:48:03;5.90;99.90
44565;DHT22;30275;51.822;-0.326;2022-11-04T04:50:50;5.90;99.90
44565;DHT22;30275;51.822;-0.326;2022-11-04T04:53:21;5.90;99.90
44565;DHT22;30275;51.822;-0.326;2022-11-04T04:55:47;6.00;99.90
44565;DHT22;30275;51.822;-0.326;2022-11-04T04:58:12;6.00;99.90
44565;DHT22;30275;51.822;-0.326;2022-11-04T05:00:38;5.90;99.90
44565;DHT22;30275;51.822;-0.326;2022-11-04T05:03:04;5.80;99.90
44565;DHT22;30275;51.822;-0.326;2022-11-04T05:05:30;5.80;99.90
44565;DHT22;30275;51.822;-0.326;2022-11-04T05:08:02;5.70;99.90
44565;DHT22;30275;51.822;-0.326;2022-11-04T05:10:28;5.70;99.90
44565;DHT22;30275;51.822;-0.326;2022-11-04T05:12:53;5.70;99.90
44565;DHT22;30275;51.822;-0.326;2022-11-04T05:15:37;5.60;99.90
44565;DHT22;30275;51.822;-0.326;2022-11-04T05:18:03;5.60;99.90
44565;DHT22;30275;51.822;-0.326;2022-11-04T05:20:29;5.60;99.90
44565;DHT22;30275;51.822;-0.326;2022-11-04T05:22:57;5.60;99.90
44565;DHT22;30275;51.822;-0.326;2022-11-04T05:25:22;5.50;99.90
44565;DHT22;30275;51.822;-0.326;2022-11-04T05:27:48;5.50;99.90
44565;DHT22;30275;51.822;-0.326;2022-11-04T05:30:14;5.40;99.90
44565;DHT22;30275;51.822;-0.326;2022-11-04T05:32:39;5.40;99.90
44565;DHT22;30275;51.822;-0.326;2022-11-04T05:35:05;5.40;99.90
44565;DHT22;30275;51.822;-0.326;2022-11-04T05:37:31;5.40;99.90
44565;DHT22;30275;51.822;-0.326;2022-11-04T05:39:56;5.40;99.90
44565;DHT22;30275;51.822;-0.326;2022-11-04T05:42:22;5.40;99.90
44565;DHT22;30275;51.822;-0.326;2022-11-04T05:44:48;5.30;99.90
44565;DHT22;30275;51.822;-0.326;2022-11-04T05:47:14;5.30;99.90
44565;DHT22;30275;51.822;-0.326;2022-11-04T05:49:39;5.30;99.90
44565;DHT22;30275;51.822;-0.326;2022-11-04T05:52:05;5.30;99.90
44565;DHT22;30275;51.822;-0.326;2022-11-04T05:54:30;5.30;99.90
44565;DHT22;30275;51.822;-0.326;2022-11-04T05:56:56;5.20;99.90
44565;DHT22;30275;51.822;-0.326;2022-11-04T05:59:22;5.20;99.90
44565;DHT22;30275;51.822;-0.326;2022-11-04T06:01:47;5.20;99.90
44565;DHT22;30275;51.822;-0.326;2022-11-04T06:04:18;5.20;99.90
44565;DHT22;30275;51.822;-0.326;2022-11-04T06:06:44;5.10;99.90
44565;DHT22;30275;51.822;-0.326;2022-11-04T06:09:10;5.20;99.90
44565;DHT22;30275;51.822;-0.326;2022-11-04T06:11:37;5.20;99.90
44565;DHT22;30275;51.822;-0.326;2022-11-04T06:14:03;5.10;99.90
44565;DHT22;30275;51.822;-0.326;2022-11-04T06:16:29;5.10;99.90
44565;DHT22;30275;51.822;-0.326;2022-11-04T06:18:55;5.30;99.90
44565;DHT22;30275;51.822;-0.326;2022-11-04T06:21:26;5.30;99.90
44565;DHT22;30275;51.822;-0.326;2022-11-04T06:23:53;5.30;99.90
44565;DHT22;30275;51.822;-0.326;2022-11-04T06:26:22;5.30;99.90
44565;DHT22;30275;51.822;-0.326;2022-11-04T06:28:47;5.30;99.90
44565;DHT22;30275;51.822;-0.326;2022-11-04T06:31:14;5.30;99.90
44565;DHT22;30275;51.822;-0.326;2022-11-04T06:33:40;5.20;99.90
44565;DHT22;30275;51.822;-0.326;2022-11-04T06:36:07;5.20;99.90
44565;DHT22;30275;51.822;-0.326;2022-11-04T06:38:35;5.10;99.90
44565;DHT22;30275;51.822;-0.326;2022-11-04T06:41:02;5.00;99.90
44565;DHT22;30275;51.822;-0.326;2022-11-04T06:43:29;5.00;99.90
44565;DHT22;30275;51.822;-0.326;2022-11-04T06:46:04;4.90;99.90
44565;DHT22;30275;51.822;-0.326;2022-11-04T06:48:30;4.90;99.90
44565;DHT22;30275;51.822;-0.326;2022-11-04T06:50:57;4.90;99.90
44565;DHT22;30275;51.822;-0.326;2022-11-04T06:53:24;5.00;99.90
44565;DHT22;30275;51.822;-0.326;2022-11-04T06:55:51;5.00;99.90
44565;DHT22;30275;51.822;-0.326;2022-11-04T06:58:17;5.00;99.90
44565;DHT22;30275;51.822;-0.326;2022-11-04T07:00:43;5.00;99.90
44565;DHT22;30275;51.822;-0.326;2022-11-04T07:03:14;5.10;99.90
44565;DHT22;30275;51.822;-0.326;2022-11-04T07:05:43;5.10;99.90
44565;DHT22;30275;51.822;-0.326;2022-11-04T07:08:08;5.10;99.90
44565;DHT22;30275;51.822;-0.326;2022-11-04T07:10:34;5.10;99.90
44565;DHT22;30275;51.822;-0.326;2022-11-04T07:13:01;5.10;99.90
44565;DHT22;30275;51.822;-0.326;2022-11-04T07:15:26;5.10;99.90
44565;DHT22;30275;51.822;-0.326;2022-11-04T07:17:52;5.20;99.90
44565;DHT22;30275;51.822;-0.326;2022-11-04T07:20:17;5.20;99.90
44565;DHT22;30275;51.822;-0.326;2022-11-04T07:22:44;5.10;99.90
44565;DHT22;30275;51.822;-0.326;2022-11-04T07:25:09;5.20;99.90
44565;DHT22;30275;51.822;-0.326;2022-11-04T07:27:35;5.20;99.90
44565;DHT22;30275;51.822;-0.326;2022-11-04T07:30:01;5.20;99.90
44565;DHT22;30275;51.822;-0.326;2022-11-04T07:32:27;5.20;99.90
44565;DHT22;30275;51.822;-0.326;2022-11-04T07:34:52;5.30;99.90
44565;DHT22;30275;51.822;-0.326;2022-11-04T07:37:18;5.30;99.90
44565;DHT22;30275;51.822;-0.326;2022-11-04T07:39:44;5.30;99.90
44565;DHT22;30275;51.822;-0.326;2022-11-04T07:42:09;5.40;99.90
44565;DHT22;30275;51.822;-0.326;2022-11-04T07:44:35;5.50;99.90
44565;DHT22;30275;51.822;-0.326;2022-11-04T07:47:01;5.50;99.90
44565;DHT22;30275;51.822;-0.326;2022-11-04T07:49:27;5.70;99.90
44565;DHT22;30275;51.822;-0.326;2022-11-04T07:51:52;5.90;99.90
44565;DHT22;30275;51.822;-0.326;2022-11-04T07:54:18;6.30;99.90
44565;DHT22;30275;51.822;-0.326;2022-11-04T07:56:44;6.90;99.90
44565;DHT22;30275;51.822;-0.326;2022-11-04T07:59:09;7.90;99.90
44565;DHT22;30275;51.822;-0.326;2022-11-04T08:01:35;8.50;99.90
44565;DHT22;30275;51.822;-0.326;2022-11-04T08:04:01;9.50;99.90
44565;DHT22;30275;51.822;-0.326;2022-11-04T08:06:27;9.90;99.90
44565;DHT22;30275;51.822;-0.326;2022-11-04T08:08:54;9.90;99.90
44565;DHT22;30275;51.822;-0.326;2022-11-04T08:11:23;10.30;99.90
44565;DHT22;30275;51.822;-0.326;2022-11-04T08:13:49;10.60;99.90
44565;DHT22;30275;51.822;-0.326;2022-11-04T08:16:17;10.50;99.90
44565;DHT22;30275;51.822;-0.326;2022-11-04T08:18:44;10.30;99.90
44565;DHT22;30275;51.822;-0.326;2022-11-04T08:21:10;10.10;99.90
44565;DHT22;30275;51.822;-0.326;2022-11-04T08:23:36;10.00;99.90
44565;DHT22;30275;51.822;-0.326;2022-11-04T08:26:10;10.30;99.90
44565;DHT22;30275;51.822;-0.326;2022-11-04T08:28:36;10.30;99.90
44565;DHT22;30275;51.822;-0.326;2022-11-04T08:31:12;10.60;99.90
44565;DHT22;30275;51.822;-0.326;2022-11-04T08:33:39;10.90;99.90
44565;DHT22;30275;51.822;-0.326;2022-11-04T08:36:12;11.40;99.90
44565;DHT22;30275;51.822;-0.326;2022-11-04T08:38:39;12.10;99.90
44565;DHT22;30275;51.822;-0.326;2022-11-04T08:41:06;12.70;99.90
44565;DHT22;30275;51.822;-0.326;2022-11-04T08:43:32;13.20;99.90
44565;DHT22;30275;51.822;-0.326;2022-11-04T08:45:59;14.00;99.90
44565;DHT22;30275;51.822;-0.326;2022-11-04T08:48:25;14.40;99.90
44565;DHT22;30275;51.822;-0.326;2022-11-04T08:50:53;14.50;99.90
44565;DHT22;30275;51.822;-0.326;2022-11-04T08:53:19;13.90;99.90
44565;DHT22;30275;51.822;-0.326;2022-11-04T08:55:45;13.50;99.90
44565;DHT22;30275;51.822;-0.326;2022-11-04T08:58:11;13.60;99.90
44565;DHT22;30275;51.822;-0.326;2022-11-04T09:00:37;13.90;99.90
44565;DHT22;30275;51.822;-0.326;2022-11-04T09:03:03;14.30;99.90
44565;DHT22;30275;51.822;-0.326;2022-11-04T09:05:30;14.40;99.90
44565;DHT22;30275;51.822;-0.326;2022-11-04T09:07:55;15.10;99.90
44565;DHT22;30275;51.822;-0.326;2022-11-04T09:10:21;15.50;99.90
44565;DHT22;30275;51.822;-0.326;2022-11-04T09:12:47;15.80;99.90
44565;DHT22;30275;51.822;-0.326;2022-11-04T09:15:13;16.30;99.90
44565;DHT22;30275;51.822;-0.326;2022-11-04T09:17:38;17.20;99.90
44565;DHT22;30275;51.822;-0.326;2022-11-04T09:20:05;18.20;99.00
44565;DHT22;30275;51.822;-0.326;2022-11-04T09:22:31;19.10;97.30
44565;DHT22;30275;51.822;-0.326;2022-11-04T09:24:56;19.90;95.40
44565;DHT22;30275;51.822;-0.326;2022-11-04T09:27:22;20.80;94.60
44565;DHT22;30275;51.822;-0.326;2022-11-04T09:29:48;21.50;91.80
44565;DHT22;30275;51.822;-0.326;2022-11-04T09:32:14;21.80;91.30
44565;DHT22;30275;51.822;-0.326;2022-11-04T09:34:40;21.90;91.40
44565;DHT22;30275;51.822;-0.326;2022-11-04T09:37:05;21.50;90.80
44565;DHT22;30275;51.822;-0.326;2022-11-04T09:39:31;21.20;90.70
44565;DHT22;30275;51.822;-0.326;2022-11-04T09:47:23;21.70;91.20
44565;DHT22;30275;51.822;-0.326;2022-11-04T09:49:53;21.80;91.10
44565;DHT22;30275;51.822;-0.326;2022-11-04T09:52:28;21.30;91.10
44565;DHT22;30275;51.822;-0.326;2022-11-04T09:57:56;21.50;91.20
44565;DHT22;30275;51.822;-0.326;2022-11-04T10:00:28;23.10;89.50
44565;DHT22;30275;51.822;-0.326;2022-11-04T10:06:37;24.20;85.60
44565;DHT22;30275;51.822;-0.326;2022-11-04T10:11:33;22.50;85.60
44565;DHT22;30275;51.822;-0.326;2022-11-04T10:27:27;22.80;85.50
44565;DHT22;30275;51.822;-0.326;2022-11-04T10:37:52;21.30;87.70
44565;DHT22;30275;51.822;-0.326;2022-11-04T10:40:35;21.30;87.50
44565;DHT22;30275;51.822;-0.326;2022-11-04T10:43:06;20.80;89.30
44565;DHT22;30275;51.822;-0.326;2022-11-04T10:45:43;20.30;90.00
44565;DHT22;30275;51.822;-0.326;2022-11-04T10:48:19;21.20;90.00
44565;DHT22;30275;51.822;-0.326;2022-11-04T10:50:57;20.60;91.00
44565;DHT22;30275;51.822;-0.326;2022-11-04T10:53:33;21.10;90.40
44565;DHT22;30275;51.822;-0.326;2022-11-04T10:56:05;21.30;89.70
44565;DHT22;30275;51.822;-0.326;2022-11-04T10:58:40;21.20;87.60
44565;DHT22;30275;51.822;-0.326;2022-11-04T11:01:28;20.70;89.30
44565;DHT22;30275;51.822;-0.326;2022-11-04T11:03:55;22.20;89.10
44565;DHT22;30275;51.822;-0.326;2022-11-04T11:08:46;21.00;88.40
44565;DHT22;30275;51.822;-0.326;2022-11-04T11:11:13;20.50;90.00
44565;DHT22;30275;51.822;-0.326;2022-11-04T11:13:43;20.60;88.80
44565;DHT22;30275;51.822;-0.326;2022-11-04T11:16:20;19.30;90.00
44565;DHT22;30275;51.822;-0.326;2022-11-04T11:21:50;20.40;89.20
44565;DHT22;30275;51.822;-0.326;2022-11-04T11:24:25;21.10;88.30
44565;DHT22;30275;51.822;-0.326;2022-11-04T11:26:53;20.80;87.90
44565;DHT22;30275;51.822;-0.326;2022-11-04T11:29:28;21.10;85.90
44565;DHT22;30275;51.822;-0.326;2022-11-04T11:31:56;21.20;86.30
44565;DHT22;30275;51.822;-0.326;2022-11-04T11:34:31;20.70;86.40
44565;DHT22;30275;51.822;-0.326;2022-11-04T11:36:58;20.10;86.30
44565;DHT22;30275;51.822;-0.326;2022-11-04T11:39:30;20.50;88.10
44565;DHT22;30275;51.822;-0.326;2022-11-04T11:42:05;21.70;86.90
44565;DHT22;30275;51.822;-0.326;2022-11-04T11:44:37;21.00;86.80
44565;DHT22;30275;51.822;-0.326;2022-11-04T11:47:21;20.60;84.80
44565;DHT22;30275;51.822;-0.326;2022-11-04T11:52:42;20.70;86.90
44565;DHT22;30275;51.822;-0.326;2022-11-04T11:58:10;20.70;86.60
44565;DHT22;30275;51.822;-0.326;2022-11-04T12:00:45;20.90;84.80
44565;DHT22;30275;51.822;-0.326;2022-11-04T12:03:28;20.30;86.00
44565;DHT22;30275;51.822;-0.326;2022-11-04T12:14:28;17.70;90.90
44565;DHT22;30275;51.822;-0.326;2022-11-04T12:22:22;18.00;91.00
44565;DHT22;30275;51.822;-0.326;2022-11-04T12:30:52;18.10;91.40
44565;DHT22;30275;51.822;-0.326;2022-11-04T12:33:51;17.50;90.30
44565;DHT22;30275;51.822;-0.326;2022-11-04T12:36:32;16.90;92.60
44565;DHT22;30275;51.822;-0.326;2022-11-04T12:44:31;16.60;94.30
44565;DHT22;30275;51.822;-0.326;2022-11-04T12:49:48;16.80;93.40
44565;DHT22;30275;51.822;-0.326;2022-11-04T12:58:19;13.60;99.90
44565;DHT22;30275;51.822;-0.326;2022-11-04T13:00:56;12.90;99.90
44565;DHT22;30275;51.822;-0.326;2022-11-04T13:03:28;12.50;99.90
44565;DHT22;30275;51.822;-0.326;2022-11-04T13:08:59;12.50;99.90
44565;DHT22;30275;51.822;-0.326;2022-11-04T13:11:40;12.50;99.90
44565;DHT22;30275;51.822;-0.326;2022-11-04T13:14:15;12.40;99.90
44565;DHT22;30275;51.822;-0.326;2022-11-04T13:16:46;12.40;99.90
44565;DHT22;30275;51.822;-0.326;2022-11-04T13:22:12;12.30;99.90
44565;DHT22;30275;51.822;-0.326;2022-11-04T13:24:50;12.00;99.90
44565;DHT22;30275;51.822;-0.326;2022-11-04T13:27:24;12.00;99.90
44565;DHT22;30275;51.822;-0.326;2022-11-04T13:30:02;11.90;99.90
44565;DHT22;30275;51.822;-0.326;2022-11-04T13:32:34;12.00;99.90
44565;DHT22;30275;51.822;-0.326;2022-11-04T13:35:20;12.40;99.90
44565;DHT22;30275;51.822;-0.326;2022-11-04T13:38:06;12.50;99.90
44565;DHT22;30275;51.822;-0.326;2022-11-04T13:43:24;12.40;99.90
44565;DHT22;30275;51.822;-0.326;2022-11-04T13:46:05;12.40;99.90
44565;DHT22;30275;51.822;-0.326;2022-11-04T13:48:59;12.40;99.90
44565;DHT22;30275;51.822;-0.326;2022-11-04T13:51:43;12.30;99.90
44565;DHT22;30275;51.822;-0.326;2022-11-04T13:54:30;12.10;99.90
44565;DHT22;30275;51.822;-0.326;2022-11-04T13:57:22;12.10;99.90
44565;DHT22;30275;51.822;-0.326;2022-11-04T14:16:05;12.30;99.90
44565;DHT22;30275;51.822;-0.326;2022-11-04T14:18:33;12.40;99.90
44565;DHT22;30275;51.822;-0.326;2022-11-04T14:21:09;12.50;99.90
44565;DHT22;30275;51.822;-0.326;2022-11-04T14:23:36;12.30;99.90
44565;DHT22;30275;51.822;-0.326;2022-11-04T14:26:05;12.40;99.90
44565;DHT22;30275;51.822;-0.326;2022-11-04T14:28:32;12.50;99.90
44565;DHT22;30275;51.822;-0.326;2022-11-04T14:31:03;12.60;99.90
44565;DHT22;30275;51.822;-0.326;2022-11-04T14:41:47;12.80;99.90
44565;DHT22;30275;51.822;-0.326;2022-11-04T14:44:30;12.60;99.90
44565;DHT22;30275;51.822;-0.326;2022-11-04T14:47:05;12.70;99.90
44565;DHT22;30275;51.822;-0.326;2022-11-04T14:51:57;12.30;99.90
44565;DHT22;30275;51.822;-0.326;2022-11-04T14:54:25;12.10;99.90
44565;DHT22;30275;51.822;-0.326;2022-11-04T14:57:21;11.90;99.90
44565;DHT22;30275;51.822;-0.326;2022-11-04T14:59:47;11.60;99.90
44565;DHT22;30275;51.822;-0.326;2022-11-04T15:02:24;11.80;99.90
44565;DHT22;30275;51.822;-0.326;2022-11-04T15:05:00;11.90;99.90
44565;DHT22;30275;51.822;-0.326;2022-11-04T15:07:32;11.60;99.90
44565;DHT22;30275;51.822;-0.326;2022-11-04T15:09:59;11.40;99.90
44565;DHT22;30275;51.822;-0.326;2022-11-04T15:12:25;11.30;99.90
44565;DHT22;30275;51.822;-0.326;2022-11-04T15:18:11;11.20;99.90
44565;DHT22;30275;51.822;-0.326;2022-11-04T15:23:17;11.10;99.90
44565;DHT22;30275;51.822;-0.326;2022-11-04T15:25:48;10.90;99.90
44565;DHT22;30275;51.822;-0.326;2022-11-04T15:28:22;10.90;99.90
44565;DHT22;30275;51.822;-0.326;2022-11-04T15:33:58;10.60;99.90
44565;DHT22;30275;51.822;-0.326;2022-11-04T15:36:28;10.50;99.90
44565;DHT22;30275;51.822;-0.326;2022-11-04T15:39:15;10.40;99.90
44565;DHT22;30275;51.822;-0.326;2022-11-04T15:41:42;10.30;99.90
44565;DHT22;30275;51.822;-0.326;2022-11-04T15:44:33;10.20;99.90
44565;DHT22;30275;51.822;-0.326;2022-11-04T15:47:01;10.10;99.90
44565;DHT22;30275;51.822;-0.326;2022-11-04T15:49:32;9.90;99.90
44565;DHT22;30275;51.822;-0.326;2022-11-04T15:52:07;9.90;99.90
44565;DHT22;30275;51.822;-0.326;2022-11-04T15:54:39;9.80;99.90
44565;DHT22;30275;51.822;-0.326;2022-11-04T15:57:15;9.70;99.90
44565;DHT22;30275;51.822;-0.326;2022-11-04T15:59:58;9.60;99.90
44565;DHT22;30275;51.822;-0.326;2022-11-04T16:02:31;9.40;99.90
44565;DHT22;30275;51.822;-0.326;2022-11-04T16:07:42;9.50;99.90
44565;DHT22;30275;51.822;-0.326;2022-11-04T16:15:44;9.50;99.90
44565;DHT22;30275;51.822;-0.326;2022-11-04T16:18:33;9.00;99.90
44565;DHT22;30275;51.822;-0.326;2022-11-04T16:21:07;8.50;99.90
44565;DHT22;30275;51.822;-0.326;2022-11-04T16:23:43;8.20;99.90
44565;DHT22;30275;51.822;-0.326;2022-11-04T16:26:11;8.00;99.90
44565;DHT22;30275;51.822;-0.326;2022-11-04T16:28:38;7.90;99.90
44565;DHT22;30275;51.822;-0.326;2022-11-04T16:31:23;7.80;99.90
44565;DHT22;30275;51.822;-0.326;2022-11-04T16:33:49;7.90;99.90
44565;DHT22;30275;51.822;-0.326;2022-11-04T16:36:15;8.00;99.90
44565;DHT22;30275;51.822;-0.326;2022-11-04T16:39:00;8.10;99.90
44565;DHT22;30275;51.822;-0.326;2022-11-04T16:41:35;8.10;99.90
44565;DHT22;30275;51.822;-0.326;2022-11-04T16:44:03;8.00;99.90
44565;DHT22;30275;51.822;-0.326;2022-11-04T16:46:30;7.80;99.90
44565;DHT22;30275;51.822;-0.326;2022-11-04T16:48:57;7.70;99.90
44565;DHT22;30275;51.822;-0.326;2022-11-04T16:51:23;7.60;99.90
44565;DHT22;30275;51.822;-0.326;2022-11-04T16:53:53;7.40;99.90
44565;DHT22;30275;51.822;-0.326;2022-11-04T16:56:23;7.20;99.90
44565;DHT22;30275;51.822;-0.326;2022-11-04T16:58:50;7.10;99.90
44565;DHT22;30275;51.822;-0.326;2022-11-04T17:01:15;7.00;99.90
44565;DHT22;30275;51.822;-0.326;2022-11-04T17:03:42;6.80;99.90
44565;DHT22;30275;51.822;-0.326;2022-11-04T17:06:09;6.80;99.90
44565;DHT22;30275;51.822;-0.326;2022-11-04T17:08:35;6.60;99.90
44565;DHT22;30275;51.822;-0.326;2022-11-04T17:11:01;6.70;99.90
44565;DHT22;30275;51.822;-0.326;2022-11-04T17:13:27;6.70;99.90
44565;DHT22;30275;51.822;-0.326;2022-11-04T17:15:53;6.80;99.90
44565;DHT22;30275;51.822;-0.326;2022-11-04T17:18:19;6.70;99.90
44565;DHT22;30275;51.822;-0.326;2022-11-04T17:20:50;6.70;99.90
44565;DHT22;30275;51.822;-0.326;2022-11-04T17:23:16;6.50;99.90
44565;DHT22;30275;51.822;-0.326;2022-11-04T17:25:43;6.40;99.90
44565;DHT22;30275;51.822;-0.326;2022-11-04T17:28:09;6.30;99.90
44565;DHT22;30275;51.822;-0.326;2022-11-04T17:30:34;6.30;99.90
44565;DHT22;30275;51.822;-0.326;2022-11-04T17:33:00;6.30;99.90
44565;DHT22;30275;51.822;-0.326;2022-11-04T17:35:37;6.20;99.90
44565;DHT22;30275;51.822;-0.326;2022-11-04T17:38:03;6.30;99.90
44565;DHT22;30275;51.822;-0.326;2022-11-04T17:40:29;6.20;99.90
44565;DHT22;30275;51.822;-0.326;2022-11-04T17:42:55;6.20;99.90
44565;DHT22;30275;51.822;-0.326;2022-11-04T17:45:42;6.20;99.90
44565;DHT22;30275;51.822;-0.326;2022-11-04T17:48:09;6.20;99.90
44565;DHT22;30275;51.822;-0.326;2022-11-04T17:50:38;6.20;99.90
44565;DHT22;30275;51.822;-0.326;2022-11-04T17:53:04;6.30;99.90
44565;DHT22;30275;51.822;-0.326;2022-11-04T17:55:30;6.20;99.90
44565;DHT22;30275;51.822;-0.326;2022-11-04T17:57:55;6.10;99.90
44565;DHT22;30275;51.822;-0.326;2022-11-04T18:00:21;6.10;99.90
44565;DHT22;30275;51.822;-0.326;2022-11-04T18:02:53;6.10;99.90
44565;DHT22;30275;51.822;-0.326;2022-11-04T18:05:19;6.20;99.90
44565;DHT22;30275;51.822;-0.326;2022-11-04T18:07:44;6.30;99.90
44565;DHT22;30275;51.822;-0.326;2022-11-04T18:10:10;6.30;99.90
44565;DHT22;30275;51.822;-0.326;2022-11-04T18:12:36;6.30;99.90
44565;DHT22;30275;51.822;-0.326;2022-11-04T18:15:06;6.30;99.90
44565;DHT22;30275;51.822;-0.326;2022-11-04T18:17:38;6.40;99.90
44565;DHT22;30275;51.822;-0.326;2022-11-04T18:20:06;6.20;99.90
44565;DHT22;30275;51.822;-0.326;2022-11-04T18:22:34;6.10;99.90
44565;DHT22;30275;51.822;-0.326;2022-11-04T18:24:59;6.10;99.90
44565;DHT22;30275;51.822;-0.326;2022-11-04T18:27:25;6.00;99.90
44565;DHT22;30275;51.822;-0.326;2022-11-04T18:29:51;5.90;99.90
44565;DHT22;30275;51.822;-0.326;2022-11-04T18:32:16;5.90;99.90